createdAt,value
2023-04-19T00:02:34.451Z,10.10
2023-04-19T00:05:09.326Z,11.00
2023-04-19T00:07:42.280Z,11.10
2023-04-19T00:10:22.896Z,12.00
2023-04-19T00:12:53.450Z,13.30
2023-04-19T00:15:24.306Z,11.50
2023-04-19T00:17:57.628Z,10.10
2023-04-19T00:20:42.921Z,11.60
2023-04-19T00:23:32.558Z,11.40
2023-04-19T00:26:06.919Z,11.30
2023-04-19T00:28:37.753Z,13.70
2023-04-19T00:31:08.467Z,11.10
2023-04-19T00:33:39.166Z,12.70
2023-04-19T00:36:10.975Z,11.00
2023-04-19T00:38:42.821Z,12.60
2023-04-19T00:41:15.033Z,11.80
2023-04-19T00:44:02.175Z,12.50
2023-04-19T00:46:32.715Z,11.10
2023-04-19T00:49:05.954Z,10.40
2023-04-19T00:51:36.949Z,12.40
2023-04-19T00:54:09.084Z,12.20
2023-04-19T00:56:39.776Z,11.50
2023-04-19T00:59:10.475Z,11.40
2023-04-19T01:02:01.731Z,11.60
2023-04-19T01:04:44.896Z,13.00
2023-04-19T01:07:16.718Z,11.60
2023-04-19T01:09:50.271Z,10.80
2023-04-19T01:12:28.595Z,10.90
2023-04-19T01:15:19.321Z,10.50
2023-04-19T01:17:53.909Z,11.50
2023-04-19T01:20:33.449Z,11.20
2023-04-19T01:23:12.605Z,11.80
2023-04-19T01:25:53.472Z,10.30
2023-04-19T01:28:25.612Z,10.40
2023-04-19T01:30:58.439Z,12.70
2023-04-19T01:33:49.169Z,10.10
2023-04-19T01:36:34.282Z,10.50
2023-04-19T01:39:07.735Z,11.50
2023-04-19T01:41:38.230Z,9.40
2023-04-19T01:44:29.190Z,11.00
2023-04-19T01:47:10.913Z,11.90
2023-04-19T01:49:44.543Z,11.20
2023-04-19T01:52:15.027Z,10.60
2023-04-19T01:54:48.094Z,12.60
2023-04-19T01:57:32.789Z,11.50
2023-04-19T02:00:04.448Z,10.70
2023-04-19T02:02:44.877Z,9.40
2023-04-19T02:05:15.851Z,11.40
2023-04-19T02:07:46.714Z,10.10
2023-04-19T02:10:19.786Z,11.50
2023-04-19T02:12:52.849Z,11.40
2023-04-19T02:15:23.438Z,12.90
2023-04-19T02:17:57.326Z,10.60
2023-04-19T02:20:31.370Z,9.90
2023-04-19T02:23:01.839Z,10.80
2023-04-19T02:25:35.070Z,11.60
2023-04-19T02:28:05.722Z,11.30
2023-04-19T02:30:41.303Z,12.00
2023-04-19T02:33:17.248Z,14.10
2023-04-19T02:35:52.810Z,12.80
2023-04-19T02:38:31.009Z,11.70
2023-04-19T02:41:04.408Z,10.60
2023-04-19T02:43:35.092Z,10.10
2023-04-19T02:46:08.165Z,10.30
2023-04-19T02:48:48.141Z,9.80
2023-04-19T02:51:21.807Z,13.10
2023-04-19T02:54:03.534Z,10.30
2023-04-19T02:56:34.739Z,11.80
2023-04-19T02:59:18.532Z,10.50
2023-04-19T03:02:09.198Z,11.60
2023-04-19T03:04:43.358Z,11.40
2023-04-19T03:07:14.354Z,13.30
2023-04-19T03:09:45.201Z,11.60
2023-04-19T03:12:15.940Z,11.50
2023-04-19T03:14:49.379Z,11.60
2023-04-19T03:17:20.143Z,9.80
2023-04-19T03:20:07.962Z,12.20
2023-04-19T03:22:41.734Z,10.20
2023-04-19T03:27:57.313Z,11.40
2023-04-19T03:30:45.804Z,11.30
2023-04-19T03:33:19.631Z,10.40
2023-04-19T03:36:04.206Z,11.70
2023-04-19T03:38:39.158Z,11.50
2023-04-19T03:41:21.906Z,11.40
2023-04-19T03:43:55.423Z,10.80
2023-04-19T03:46:28.142Z,11.70
2023-04-19T03:49:10.956Z,11.00
2023-04-19T03:56:53.073Z,10.50
2023-04-19T03:59:31.829Z,11.20
2023-04-19T04:02:07.039Z,10.70
2023-04-19T04:07:17.693Z,13.30
2023-04-19T04:09:59.447Z,11.30
2023-04-19T04:12:50.220Z,11.80
2023-04-19T04:15:28.179Z,12.40
2023-04-19T04:18:09.310Z,12.70
2023-04-19T04:20:44.491Z,13.60
2023-04-19T04:23:16.569Z,13.30
2023-04-19T04:26:02.599Z,13.60
2023-04-19T04:28:56.513Z,13.40
2023-04-19T04:31:38.555Z,11.60
2023-04-19T04:34:20.519Z,12.30
2023-04-19T04:37:11.839Z,12.20
2023-04-19T04:39:46.012Z,11.80
2023-04-19T04:42:37.899Z,13.40
2023-04-19T04:45:13.072Z,14.80
2023-04-19T04:47:47.940Z,13.70
2023-04-19T04:50:31.448Z,13.00
2023-04-19T04:53:11.084Z,14.80
2023-04-19T04:55:53.798Z,14.60
2023-04-19T04:58:39.115Z,11.80
2023-04-19T05:01:26.415Z,13.30
2023-04-19T05:03:57.357Z,16.20
2023-04-19T05:06:48.140Z,13.60
2023-04-19T05:09:23.895Z,15.00
2023-04-19T05:12:03.934Z,12.70
2023-04-19T05:14:48.496Z,12.00
2023-04-19T05:17:39.298Z,14.20
2023-04-19T05:20:12.168Z,14.10
2023-04-19T05:23:03.541Z,12.80
2023-04-19T05:25:50.634Z,14.20
2023-04-19T05:28:41.301Z,12.40
2023-04-19T05:31:31.195Z,13.90
2023-04-19T05:34:25.127Z,13.30
2023-04-19T05:37:10.575Z,14.80
2023-04-19T05:39:45.535Z,12.50
2023-04-19T05:42:36.540Z,13.20
2023-04-19T05:45:11.581Z,13.40
2023-04-19T05:47:43.110Z,13.30
2023-04-19T05:50:33.330Z,14.60
2023-04-19T05:53:23.143Z,12.60
2023-04-19T05:55:54.931Z,13.80
2023-04-19T05:58:28.744Z,12.50
2023-04-19T06:01:00.041Z,15.20
2023-04-19T06:03:32.365Z,14.60
2023-04-19T06:06:15.213Z,16.00
2023-04-19T06:11:26.945Z,12.80
2023-04-19T06:14:09.997Z,15.10
2023-04-19T06:17:01.915Z,14.70
2023-04-19T06:19:44.431Z,15.80
2023-04-19T06:22:34.094Z,13.00
2023-04-19T06:25:06.123Z,12.60
2023-04-19T06:27:36.678Z,13.60
2023-04-19T06:30:11.948Z,14.30
2023-04-19T06:32:42.546Z,14.60
2023-04-19T06:35:15.854Z,14.10
2023-04-19T06:37:56.714Z,11.90
2023-04-19T06:40:30.283Z,12.50
2023-04-19T06:43:03.200Z,12.20
2023-04-19T06:45:38.969Z,11.40
2023-04-19T06:48:09.738Z,13.30
2023-04-19T06:50:50.413Z,14.10
2023-04-19T06:53:21.038Z,12.00
2023-04-19T06:55:54.811Z,13.60
2023-04-19T06:58:30.134Z,12.70
2023-04-19T07:01:02.071Z,12.70
2023-04-19T07:03:36.341Z,12.30
2023-04-19T07:08:48.838Z,12.10
2023-04-19T07:11:22.332Z,12.40
2023-04-19T07:13:53.901Z,10.50
2023-04-19T07:18:54.474Z,12.10
2023-04-19T07:21:30.403Z,12.10
2023-04-19T07:24:10.447Z,12.30
2023-04-19T07:26:40.834Z,12.30
2023-04-19T07:29:13.861Z,12.40
2023-04-19T07:31:44.478Z,11.10
2023-04-19T07:34:15.464Z,11.80
2023-04-19T07:36:46.432Z,11.20
2023-04-19T07:39:17.238Z,11.20
2023-04-19T07:41:48.054Z,10.20
2023-04-19T07:44:21.239Z,11.80
2023-04-19T07:46:52.891Z,10.30
2023-04-19T07:49:26.532Z,10.20
2023-04-19T07:52:11.281Z,11.40
2023-04-19T07:54:41.844Z,11.30
2023-04-19T07:57:12.510Z,11.40
2023-04-19T07:59:43.388Z,11.90
2023-04-19T08:02:14.247Z,10.90
2023-04-19T08:04:48.400Z,15.90
2023-04-19T08:07:19.296Z,11.90
2023-04-19T08:09:50.057Z,13.70
2023-04-19T08:15:06.675Z,12.40
2023-04-19T08:17:46.094Z,12.30
2023-04-19T08:20:17.794Z,11.70
2023-04-19T08:22:48.350Z,13.10
2023-04-19T08:25:26.719Z,12.40
2023-04-19T08:27:58.195Z,12.60
2023-04-19T08:30:28.845Z,11.80
2023-04-19T08:32:59.459Z,12.80
2023-04-19T08:35:30.339Z,11.70
2023-04-19T08:38:02.588Z,11.00
2023-04-19T08:40:34.557Z,11.80
2023-04-19T08:43:09.101Z,11.00
2023-04-19T08:45:40.479Z,12.10
2023-04-19T08:53:34.263Z,10.70
2023-04-19T08:56:21.174Z,11.30
2023-04-19T08:59:15.640Z,12.50
2023-04-19T09:01:48.928Z,11.70
2023-04-19T09:04:34.514Z,10.50
2023-04-19T09:07:08.285Z,10.70
2023-04-19T09:09:55.612Z,11.10
2023-04-19T09:12:32.944Z,10.30
2023-04-19T09:15:05.287Z,11.30
2023-04-19T09:17:36.377Z,11.50
2023-04-19T09:20:10.520Z,12.60
2023-04-19T09:23:07.635Z,12.40
2023-04-19T09:25:59.327Z,12.80
2023-04-19T09:28:30.452Z,11.40
2023-04-19T09:31:33.190Z,12.90
2023-04-19T09:34:15.590Z,12.20
2023-04-19T09:36:46.878Z,11.20
2023-04-19T09:39:31.785Z,12.20
2023-04-19T09:42:02.275Z,12.80
2023-04-19T09:45:06.012Z,14.60
2023-04-19T09:47:30.062Z,15.40
2023-04-19T09:50:22.567Z,14.10
2023-04-19T09:52:55.596Z,13.90
2023-04-19T09:55:29.517Z,15.60
2023-04-19T09:58:09.744Z,14.20
2023-04-19T10:00:48.802Z,14.70
2023-04-19T10:03:29.365Z,13.70
2023-04-19T10:06:04.294Z,13.20
2023-04-19T10:08:41.249Z,14.00
2023-04-19T10:11:47.898Z,13.70
2023-04-19T10:14:07.720Z,15.10
2023-04-19T10:16:41.297Z,13.60
2023-04-19T10:21:46.502Z,13.30
2023-04-19T10:24:28.473Z,13.70
2023-04-19T10:27:15.058Z,12.50
2023-04-19T10:30:05.067Z,12.20
2023-04-19T10:32:59.513Z,12.10
2023-04-19T10:35:35.966Z,13.00
2023-04-19T10:38:12.533Z,13.10
2023-04-19T10:41:01.386Z,12.40
2023-04-19T10:43:34.268Z,12.00
2023-04-19T10:46:10.003Z,11.50
2023-04-19T10:48:56.478Z,11.20
2023-04-19T10:51:30.000Z,12.60
2023-04-19T10:54:04.596Z,11.80
2023-04-19T10:57:04.658Z,10.70
2023-04-19T10:59:36.744Z,9.80
2023-04-19T11:02:28.818Z,11.90
2023-04-19T11:05:04.599Z,9.60
2023-04-19T11:07:45.249Z,11.40
2023-04-19T11:10:28.658Z,9.20
2023-04-19T11:12:59.378Z,10.80
2023-04-19T11:15:29.905Z,8.50
2023-04-19T11:18:12.089Z,10.30
2023-04-19T11:20:45.183Z,9.40
2023-04-19T11:23:19.857Z,7.90
2023-04-19T11:25:53.546Z,8.40
2023-04-19T11:28:24.172Z,10.00
2023-04-19T11:30:55.777Z,7.40
2023-04-19T11:33:27.255Z,8.90
2023-04-19T11:35:57.675Z,8.50
2023-04-19T11:38:30.193Z,9.10
2023-04-19T11:41:05.304Z,7.00
2023-04-19T11:43:39.391Z,9.40
2023-04-19T11:46:11.663Z,10.60
2023-04-19T11:48:53.188Z,7.90
2023-04-19T11:51:23.797Z,8.00
2023-04-19T11:53:54.320Z,8.70
2023-04-19T11:56:24.841Z,8.10
2023-04-19T11:59:00.102Z,7.10
2023-04-19T12:01:32.431Z,6.70
2023-04-19T12:04:06.310Z,7.40
2023-04-19T12:06:36.987Z,7.30
2023-04-19T12:09:10.197Z,9.50
2023-04-19T12:11:50.102Z,8.40
2023-04-19T12:14:22.885Z,7.70
2023-04-19T12:17:11.518Z,8.70
2023-04-19T12:19:47.177Z,6.40
2023-04-19T12:22:21.082Z,9.90
2023-04-19T12:24:54.422Z,6.70
2023-04-19T12:27:25.761Z,7.10
2023-04-19T12:29:57.238Z,10.20
2023-04-19T12:32:27.840Z,8.20
2023-04-19T12:34:58.516Z,12.80
2023-04-19T12:37:29.157Z,8.10
2023-04-19T12:39:59.639Z,6.00
2023-04-19T12:42:30.022Z,7.40
2023-04-19T12:45:01.256Z,6.00
2023-04-19T12:50:01.910Z,7.10
2023-04-19T12:55:01.314Z,6.60
2023-04-19T12:57:31.694Z,6.70
2023-04-19T13:00:02.253Z,6.70
2023-04-19T13:02:34.912Z,5.50
2023-04-19T13:05:06.350Z,7.00
2023-04-19T13:10:07.223Z,9.20
2023-04-19T13:12:38.461Z,6.50
2023-04-19T13:15:11.213Z,7.10
2023-04-19T13:17:41.655Z,7.60
2023-04-19T13:20:14.008Z,8.10
2023-04-19T13:22:44.367Z,7.70
2023-04-19T13:25:14.722Z,5.80
2023-04-19T13:27:47.022Z,7.90
2023-04-19T13:30:18.389Z,5.90
2023-04-19T13:32:49.055Z,6.50
2023-04-19T13:35:19.749Z,6.60
2023-04-19T13:37:51.151Z,5.40
2023-04-19T13:40:21.693Z,5.80
2023-04-19T13:42:53.090Z,6.90
2023-04-19T13:45:23.599Z,6.80
2023-04-19T13:47:54.236Z,5.80
2023-04-19T13:50:24.915Z,8.20
2023-04-19T13:52:55.441Z,6.60
2023-04-19T13:55:25.955Z,5.60
2023-04-19T13:57:56.362Z,5.00
2023-04-19T14:00:27.310Z,7.20
2023-04-19T14:02:58.357Z,5.60
2023-04-19T14:07:58.012Z,5.20
2023-04-19T14:10:29.522Z,5.80
2023-04-19T14:13:00.122Z,6.70
2023-04-19T14:15:30.590Z,6.60
2023-04-19T14:18:01.551Z,6.60
2023-04-19T14:20:32.033Z,6.10
2023-04-19T14:23:02.791Z,5.10
2023-04-19T14:25:33.266Z,7.70
2023-04-19T14:28:03.829Z,4.70
2023-04-19T14:30:34.324Z,4.80
2023-04-19T14:33:05.007Z,5.10
2023-04-19T14:35:35.665Z,4.20
2023-04-19T14:38:06.405Z,5.50
2023-04-19T14:40:37.012Z,5.00
2023-04-19T14:43:08.034Z,6.70
2023-04-19T14:48:08.291Z,5.00
2023-04-19T14:50:38.632Z,3.10
2023-04-19T14:53:09.766Z,3.80
2023-04-19T14:55:40.965Z,4.50
2023-04-19T15:00:40.203Z,3.40
2023-04-19T15:03:11.354Z,3.90
2023-04-19T15:05:42.221Z,7.00
2023-04-19T15:08:27.203Z,4.30
2023-04-19T15:11:00.361Z,3.00
2023-04-19T15:13:30.862Z,3.50
2023-04-19T15:16:03.200Z,3.30
2023-04-19T15:18:33.937Z,4.40
2023-04-19T15:21:05.561Z,3.50
2023-04-19T15:23:36.205Z,4.40
2023-04-19T15:26:06.910Z,3.30
2023-04-19T15:28:38.334Z,4.40
2023-04-19T15:31:10.379Z,3.90
2023-04-19T15:33:41.105Z,4.40
2023-04-19T15:36:11.825Z,3.10
2023-04-19T15:38:43.945Z,3.30
2023-04-19T15:41:14.850Z,5.70
2023-04-19T15:43:45.337Z,6.40
2023-04-19T15:46:16.546Z,3.90
2023-04-19T15:48:48.584Z,3.80
2023-04-19T15:51:19.181Z,5.30
2023-04-19T15:53:49.641Z,4.10
2023-04-19T15:56:20.003Z,4.70
2023-04-19T15:58:50.379Z,4.10
2023-04-19T16:01:22.863Z,5.80
2023-04-19T16:03:53.910Z,3.30
2023-04-19T16:08:53.698Z,6.80
2023-04-19T16:11:24.483Z,5.20
2023-04-19T16:13:55.206Z,5.40
2023-04-19T16:16:26.930Z,6.00
2023-04-19T16:18:57.842Z,4.60
2023-04-19T16:21:28.952Z,2.60
2023-04-19T16:24:00.733Z,3.10
2023-04-19T16:26:31.253Z,3.50
2023-04-19T16:29:02.012Z,3.80
2023-04-19T16:31:32.659Z,2.80
2023-04-19T16:34:03.066Z,5.40
2023-04-19T16:36:33.539Z,3.50
2023-04-19T16:39:04.170Z,3.00
2023-04-19T16:41:34.833Z,3.00
2023-04-19T16:44:05.671Z,4.10
2023-04-19T16:46:39.381Z,4.00
2023-04-19T16:49:12.521Z,3.20
2023-04-19T16:51:46.147Z,3.30
2023-04-19T16:54:16.876Z,4.20
2023-04-19T16:56:47.327Z,3.40
2023-04-19T16:59:26.747Z,3.20
2023-04-19T17:02:01.397Z,2.90
2023-04-19T17:04:33.637Z,4.20
2023-04-19T17:07:04.513Z,3.30
2023-04-19T17:09:35.343Z,4.50
2023-04-19T17:12:07.110Z,4.90
2023-04-19T17:14:38.002Z,3.70
2023-04-19T17:17:08.527Z,3.80
2023-04-19T17:19:48.310Z,4.00
2023-04-19T17:22:21.413Z,3.30
2023-04-19T17:24:57.492Z,3.30
2023-04-19T17:27:39.039Z,4.00
2023-04-19T17:32:59.280Z,5.10
2023-04-19T17:35:30.238Z,4.10
2023-04-19T17:38:06.503Z,4.60
2023-04-19T17:40:37.146Z,4.30
2023-04-19T17:43:08.655Z,4.80
2023-04-19T17:45:40.285Z,4.50
2023-04-19T17:48:10.813Z,4.30
2023-04-19T17:50:41.397Z,4.90
2023-04-19T17:53:11.924Z,4.80
2023-04-19T17:56:03.013Z,3.90
2023-04-19T17:58:53.692Z,4.40
2023-04-19T18:01:24.569Z,7.70
2023-04-19T18:03:57.542Z,4.80
2023-04-19T18:06:48.605Z,6.40
2023-04-19T18:09:19.451Z,6.70
2023-04-19T18:11:57.972Z,6.40
2023-04-19T18:14:31.223Z,6.10
2023-04-19T18:17:02.204Z,6.20
2023-04-19T18:19:37.431Z,5.90
2023-04-19T18:22:07.973Z,3.80
2023-04-19T18:24:38.527Z,6.00
2023-04-19T18:27:09.303Z,4.10
2023-04-19T18:29:39.934Z,6.20
2023-04-19T18:32:10.790Z,6.30
2023-04-19T18:34:52.682Z,4.40
2023-04-19T18:37:23.289Z,6.70
2023-04-19T18:39:53.859Z,6.10
2023-04-19T18:42:24.620Z,5.60
2023-04-19T18:44:57.653Z,5.30
2023-04-19T18:47:29.781Z,6.40
2023-04-19T18:50:15.437Z,5.10
2023-04-19T18:52:52.605Z,5.30
2023-04-19T18:55:27.551Z,5.10
2023-04-19T18:58:01.233Z,6.00
2023-04-19T19:00:53.220Z,5.40
2023-04-19T19:06:27.601Z,6.80
2023-04-19T19:09:09.602Z,6.10
2023-04-19T19:11:56.206Z,5.20
2023-04-19T19:14:35.714Z,5.50
2023-04-19T19:17:17.433Z,6.30
2023-04-19T19:20:10.787Z,5.60
2023-04-19T19:22:54.842Z,5.50
2023-04-19T19:25:27.174Z,8.50
2023-04-19T19:28:06.999Z,5.40
2023-04-19T19:30:49.718Z,3.80
2023-04-19T19:33:21.365Z,5.00
2023-04-19T19:35:54.961Z,8.90
2023-04-19T19:38:25.867Z,5.40
2023-04-19T19:43:50.529Z,6.60
2023-04-19T19:46:24.233Z,4.70
2023-04-19T19:48:57.423Z,6.20
2023-04-19T19:51:53.149Z,5.60
2023-04-19T19:54:23.529Z,5.20
2023-04-19T19:57:31.744Z,5.70
2023-04-19T20:00:32.010Z,6.60
2023-04-19T20:03:02.123Z,7.70
2023-04-19T20:05:35.719Z,5.60
2023-04-19T20:08:12.058Z,7.40
2023-04-19T20:10:44.252Z,6.10
2023-04-19T20:13:15.190Z,6.90
2023-04-19T20:15:47.310Z,7.40
2023-04-19T20:18:20.119Z,6.00
2023-04-19T20:20:54.078Z,6.90
2023-04-19T20:23:27.026Z,7.20
2023-04-19T20:25:59.906Z,7.70
2023-04-19T20:28:41.663Z,7.10
2023-04-19T20:31:14.624Z,6.80
2023-04-19T20:33:47.831Z,8.20
2023-04-19T20:36:28.478Z,7.40
2023-04-19T20:39:06.062Z,5.30
2023-04-19T20:41:37.450Z,6.50
2023-04-19T20:44:08.310Z,6.80
2023-04-19T20:46:59.314Z,7.70
2023-04-19T20:49:29.995Z,6.10
2023-04-19T20:52:20.841Z,6.70
2023-04-19T20:55:01.920Z,5.80
2023-04-19T20:57:32.387Z,6.40
2023-04-19T21:00:08.582Z,5.10
2023-04-19T21:02:42.267Z,7.00
2023-04-19T21:05:13.167Z,6.80
2023-04-19T21:07:46.286Z,7.00
2023-04-19T21:10:22.074Z,6.10
2023-04-19T21:13:06.466Z,6.90
2023-04-19T21:15:37.492Z,6.50
2023-04-19T21:18:08.165Z,7.00
2023-04-19T21:20:39.496Z,6.00
2023-04-19T21:23:12.401Z,6.80
2023-04-19T21:25:53.080Z,5.80
2023-04-19T21:28:26.938Z,6.90
2023-04-19T21:30:58.545Z,7.10
2023-04-19T21:33:29.099Z,6.80
2023-04-19T21:36:10.436Z,7.80
2023-04-19T21:38:43.948Z,5.70
2023-04-19T21:41:14.449Z,6.60
2023-04-19T21:43:47.522Z,7.10
2023-04-19T21:46:33.376Z,6.80
2023-04-19T21:49:06.641Z,6.60
2023-04-19T21:51:45.553Z,7.20
2023-04-19T21:54:30.651Z,6.90
2023-04-19T21:57:06.981Z,5.40
2023-04-19T21:59:39.882Z,7.00
2023-04-19T22:02:21.041Z,7.50
2023-04-19T22:04:54.933Z,9.90
2023-04-19T22:07:30.304Z,7.70
2023-04-19T22:10:12.258Z,7.50
2023-04-19T22:12:54.984Z,7.00
2023-04-19T22:15:48.315Z,7.90
2023-04-19T22:18:19.162Z,4.80
2023-04-19T22:21:11.076Z,8.00
2023-04-19T22:24:01.810Z,6.30
2023-04-19T22:26:43.691Z,6.20
2023-04-19T22:29:23.195Z,5.60
2023-04-19T22:31:53.623Z,6.80
2023-04-19T22:34:44.449Z,5.20
2023-04-19T22:37:25.570Z,5.90
2023-04-19T22:40:12.046Z,7.40
2023-04-19T22:42:42.848Z,7.20
2023-04-19T22:45:16.063Z,5.90
2023-04-19T22:47:46.807Z,5.60
2023-04-19T22:50:28.591Z,7.50
2023-04-19T22:53:19.394Z,8.20
2023-04-19T22:55:53.063Z,6.50
2023-04-19T22:58:23.701Z,6.90
2023-04-19T23:01:04.724Z,6.40
2023-04-19T23:03:38.453Z,6.20
2023-04-19T23:06:30.218Z,6.20
2023-04-19T23:09:21.036Z,7.40
2023-04-19T23:11:51.736Z,6.70
2023-04-19T23:14:22.367Z,7.30
2023-04-19T23:16:55.752Z,8.30
2023-04-19T23:19:30.584Z,7.10
2023-04-19T23:22:04.218Z,6.40
2023-04-19T23:24:36.128Z,5.80
2023-04-19T23:27:17.719Z,5.50
2023-04-19T23:29:48.273Z,7.80
2023-04-19T23:32:22.059Z,6.20
2023-04-19T23:34:52.798Z,7.70
2023-04-19T23:37:30.740Z,5.90
2023-04-19T23:40:14.122Z,6.40
2023-04-19T23:43:04.983Z,6.70
2023-04-19T23:45:38.548Z,9.60
2023-04-19T23:48:29.245Z,6.70
2023-04-19T23:51:20.013Z,9.90
2023-04-19T23:54:11.165Z,8.00
2023-04-19T23:57:01.981Z,8.10
2023-04-19T23:59:33.246Z,8.30
